Time;durP1;ratioP1;P1;durP2;ratioP2;P2;SDS_P1;SDS_P2;PMS_P1;PMS_P2;Temp;Humidity;BMP_temperature;BMP_pressure;BME280_temperature;BME280_humidity;BME280_pressure;Samples;Min_cycle;Max_cycle;Signal;HPM_P1;HPM_P2
2021/01/07 00:01:50;;;;;;;42.10;30.45;;;17.00;99.90;;;;;;5129372;28;20016;-43
2021/01/07 00:04:16;;;;;;;41.42;31.98;;;17.00;99.90;;;;;;5129603;28;20026;-43
2021/01/07 00:06:42;;;;;;;42.50;32.65;;;17.00;99.90;;;;;;5119624;28;20495;-43
2021/01/07 00:09:08;;;;;;;42.33;32.05;;;17.00;99.90;;;;;;5120547;28;20027;-43
2021/01/07 00:11:34;;;;;;;44.72;33.35;;;16.90;99.90;;;;;;5130099;28;20015;-43
2021/01/07 00:13:59;;;;;;;44.22;34.00;;;16.90;99.90;;;;;;5125954;28;20027;-43
2021/01/07 00:16:25;;;;;;;52.38;36.38;;;17.00;99.90;;;;;;5104199;28;20023;-43
2021/01/07 00:18:51;;;;;;;45.85;32.30;;;17.00;99.90;;;;;;5126552;28;20040;-43
2021/01/07 00:21:17;;;;;;;39.40;29.00;;;16.90;99.90;;;;;;5131513;28;20035;-43
2021/01/07 00:23:43;;;;;;;43.58;31.98;;;16.80;99.90;;;;;;5127541;27;20080;-43
2021/01/07 00:26:08;;;;;;;39.03;29.13;;;16.80;99.90;;;;;;5125122;27;20420;-43
2021/01/07 00:28:34;;;;;;;44.58;31.70;;;16.70;99.90;;;;;;5127724;27;20027;-43
2021/01/07 00:31:00;;;;;;;35.65;28.55;;;16.70;99.90;;;;;;5131309;27;20019;-43
2021/01/07 00:33:26;;;;;;;32.92;26.33;;;16.70;99.90;;;;;;5127788;27;20078;-44
2021/01/07 00:35:52;;;;;;;36.75;27.23;;;16.70;99.90;;;;;;5129310;27;20028;-44
2021/01/07 00:38:18;;;;;;;33.28;26.40;;;16.70;99.90;;;;;;5127820;27;20028;-44
2021/01/07 00:40:44;;;;;;;31.15;24.83;;;16.70;99.90;;;;;;5129591;27;20023;-44
2021/01/07 00:43:09;;;;;;;34.40;27.42;;;16.70;99.90;;;;;;5129254;27;20031;-44
2021/01/07 00:45:36;;;;;;;33.38;24.90;;;16.60;99.90;;;;;;5130772;27;20035;-44
2021/01/07 00:48:02;;;;;;;37.15;27.65;;;16.60;99.90;;;;;;5130766;27;20023;-43
2021/01/07 00:50:28;;;;;;;29.88;24.30;;;16.60;99.90;;;;;;5126500;27;20382;-44
2021/01/07 00:52:54;;;;;;;29.90;22.85;;;16.60;99.90;;;;;;5121596;27;20110;-44
2021/01/07 00:55:20;;;;;;;24.23;19.60;;;16.60;99.90;;;;;;5109824;28;20024;-44
2021/01/07 00:57:46;;;;;;;22.17;17.08;;;16.60;99.90;;;;;;5123166;27;20020;-42
2021/01/07 01:00:15;;;;;;;20.08;16.33;;;16.70;99.90;;;;;;5124892;27;20141;-43
2021/01/07 01:02:42;;;;;;;20.95;17.73;;;16.70;99.90;;;;;;5127376;27;20015;-42
2021/01/07 01:05:08;;;;;;;22.58;17.67;;;16.60;99.90;;;;;;5128288;27;20019;-42
2021/01/07 01:07:34;;;;;;;18.92;16.05;;;16.60;99.90;;;;;;5126153;27;20094;-42
2021/01/07 01:10:00;;;;;;;21.55;17.23;;;16.60;99.90;;;;;;5131806;27;20024;-42
2021/01/07 01:12:26;;;;;;;20.33;15.85;;;16.60;99.90;;;;;;5110510;27;20630;-42
2021/01/07 01:14:52;;;;;;;20.77;14.85;;;16.60;99.90;;;;;;5129336;27;20094;-44
2021/01/07 01:17:18;;;;;;;19.17;14.60;;;16.60;99.90;;;;;;5124823;27;20378;-44
2021/01/07 01:19:44;;;;;;;17.17;13.55;;;16.60;99.90;;;;;;5127644;27;20034;-42
2021/01/07 01:22:10;;;;;;;14.93;11.52;;;16.60;99.90;;;;;;5133737;27;20023;-42
2021/01/07 01:24:36;;;;;;;14.02;11.18;;;16.50;99.90;;;;;;5124085;27;20023;-42
2021/01/07 01:27:03;;;;;;;15.02;11.23;;;16.50;99.90;;;;;;5120277;27;20033;-42
2021/01/07 01:29:29;;;;;;;15.05;11.05;;;16.60;99.90;;;;;;5130575;27;20069;-42
2021/01/07 01:31:56;;;;;;;12.73;10.32;;;16.60;99.90;;;;;;5127739;27;20015;-42
2021/01/07 01:34:23;;;;;;;14.27;10.75;;;16.50;99.90;;;;;;5107259;27;20118;-42
2021/01/07 01:36:49;;;;;;;13.48;10.95;;;16.40;99.90;;;;;;5104431;27;20110;-42
2021/01/07 01:39:16;;;;;;;12.13;10.15;;;16.40;99.90;;;;;;5125262;27;20054;-43
2021/01/07 01:41:44;;;;;;;14.33;10.27;;;16.40;99.90;;;;;;5131870;27;20027;-42
2021/01/07 01:44:10;;;;;;;;;;;16.40;99.90;;;;;;5130192;27;20114;-42
2021/01/07 01:46:36;;;;;;;11.88;8.45;;;16.40;99.90;;;;;;5128193;27;19918;-43
2021/01/07 01:49:05;;;;;;;10.57;9.00;;;16.40;99.90;;;;;;5131906;27;20050;-43
2021/01/07 01:51:32;;;;;;;11.40;8.93;;;16.40;99.90;;;;;;5126271;27;20028;-43
2021/01/07 01:53:58;;;;;;;10.48;8.20;;;16.40;99.90;;;;;;5127744;27;20461;-44
2021/01/07 01:56:24;;;;;;;10.30;8.35;;;16.40;99.90;;;;;;5124273;27;20028;-43
2021/01/07 01:58:51;;;;;;;10.43;8.10;;;16.30;99.90;;;;;;5124875;27;20027;-43
2021/01/07 02:01:18;;;;;;;11.52;7.80;;;16.30;99.90;;;;;;5122166;27;20034;-42
2021/01/07 02:03:44;;;;;;;14.90;8.50;;;16.40;99.90;;;;;;5122690;27;20026;-43
2021/01/07 02:06:15;;;;;;;7.68;6.45;;;16.30;99.90;;;;;;5128812;27;20426;-42
2021/01/07 02:08:45;;;;;;;8.98;6.88;;;16.30;99.90;;;;;;5127276;27;20027;-43
2021/01/07 02:11:13;;;;;;;8.20;6.78;;;16.30;99.90;;;;;;5133021;27;20072;-43
2021/01/07 02:13:41;;;;;;;8.98;6.25;;;16.30;99.90;;;;;;5124398;27;20023;-43
2021/01/07 02:16:07;;;;;;;7.30;6.05;;;16.30;99.90;;;;;;5121877;27;20454;-43
2021/01/07 02:18:33;;;;;;;9.48;6.63;;;16.30;99.90;;;;;;5127620;27;20062;-42
2021/01/07 02:21:03;;;;;;;8.38;5.45;;;16.20;99.90;;;;;;5122239;27;20049;-43
2021/01/07 02:23:29;;;;;;;7.03;5.55;;;16.20;99.90;;;;;;5126722;27;20023;-43
2021/01/07 02:25:56;;;;;;;6.20;5.60;;;16.30;99.90;;;;;;5124580;27;20023;-43
2021/01/07 02:28:22;;;;;;;6.75;5.55;;;16.20;99.90;;;;;;5123133;27;20102;-42
2021/01/07 02:30:48;;;;;;;7.40;5.43;;;16.20;99.90;;;;;;5130288;27;20039;-43
2021/01/07 02:33:14;;;;;;;5.97;4.53;;;16.20;99.90;;;;;;5126075;27;20343;-42
2021/01/07 02:35:40;;;;;;;5.88;4.72;;;16.20;99.90;;;;;;5124705;27;20415;-43
2021/01/07 02:38:06;;;;;;;4.55;3.85;;;16.20;99.90;;;;;;5126993;27;20159;-43
2021/01/07 02:40:32;;;;;;;6.22;4.60;;;16.10;99.90;;;;;;5126906;27;20039;-43
2021/01/07 02:42:58;;;;;;;4.82;4.25;;;16.10;99.90;;;;;;5128138;27;20023;-43
2021/01/07 02:45:24;;;;;;;4.97;4.20;;;16.10;99.90;;;;;;5125940;27;20030;-43
2021/01/07 02:47:50;;;;;;;5.72;4.40;;;16.10;99.90;;;;;;5120509;27;20024;-43
2021/01/07 02:50:16;;;;;;;5.30;4.28;;;16.10;99.90;;;;;;5124942;27;20067;-43
2021/01/07 02:52:42;;;;;;;5.15;3.95;;;16.10;99.90;;;;;;5112574;27;20027;-43
2021/01/07 02:55:08;;;;;;;6.07;4.65;;;16.10;99.90;;;;;;5125508;27;20031;-43
2021/01/07 02:57:35;;;;;;;6.07;4.18;;;16.10;99.90;;;;;;5128503;27;20548;-42
2021/01/07 03:00:00;;;;;;;5.55;3.55;;;16.10;99.90;;;;;;5112715;27;20078;-43
2021/01/07 03:02:26;;;;;;;4.55;3.90;;;16.10;99.90;;;;;;5123814;27;20027;-43
2021/01/07 03:04:52;;;;;;;3.90;3.50;;;16.10;99.90;;;;;;5125760;27;20027;-42
2021/01/07 03:07:18;;;;;;;6.55;4.03;;;16.10;99.90;;;;;;5125289;27;20034;-43
2021/01/07 03:09:44;;;;;;;5.70;3.78;;;16.10;99.90;;;;;;5126231;27;20027;-43
2021/01/07 03:12:19;;;;;;;3.83;3.40;;;16.10;99.90;;;;;;5129624;27;20051;-43
2021/01/07 03:14:46;;;;;;;4.03;3.42;;;16.10;99.90;;;;;;5120707;27;20469;-42
2021/01/07 03:17:13;;;;;;;4.68;3.15;;;16.10;99.90;;;;;;5126821;27;20069;-43
2021/01/07 03:19:39;;;;;;;4.57;3.30;;;16.10;99.90;;;;;;5126953;27;20035;-43
2021/01/07 03:22:05;;;;;;;2.60;2.40;;;16.10;99.90;;;;;;5127147;27;20019;-43
2021/01/07 03:24:32;;;;;;;4.28;2.70;;;16.00;99.90;;;;;;5124669;27;20456;-42
2021/01/07 03:26:59;;;;;;;3.80;2.83;;;16.10;99.90;;;;;;5125735;27;20030;-42
2021/01/07 03:29:26;;;;;;;2.80;2.53;;;16.10;99.90;;;;;;5124820;28;20054;-42
2021/01/07 03:31:52;;;;;;;3.72;3.10;;;16.10;99.90;;;;;;5123614;28;20025;-43
2021/01/07 03:34:18;;;;;;;4.10;2.97;;;16.00;99.90;;;;;;5128082;28;20023;-43
2021/01/07 03:36:44;;;;;;;3.13;2.72;;;16.00;99.90;;;;;;5123896;28;20019;-42
2021/01/07 03:39:10;;;;;;;5.75;2.58;;;16.10;99.90;;;;;;5120701;28;20941;-42
2021/01/07 03:41:37;;;;;;;3.20;2.67;;;16.00;99.90;;;;;;5128285;28;20039;-42
2021/01/07 03:44:04;;;;;;;3.28;2.28;;;16.00;99.90;;;;;;5123783;28;20029;-42
2021/01/07 03:46:30;;;;;;;6.28;2.30;;;16.00;99.90;;;;;;5125357;28;20031;-42
2021/01/07 03:48:56;;;;;;;3.72;2.53;;;16.00;99.90;;;;;;5126400;28;20027;-42
2021/01/07 03:51:22;;;;;;;3.03;2.15;;;15.90;99.90;;;;;;5129725;28;20042;-43
2021/01/07 03:53:47;;;;;;;2.42;2.08;;;16.00;99.90;;;;;;5125143;28;20028;-42
2021/01/07 03:56:13;;;;;;;3.97;2.03;;;15.90;99.90;;;;;;5124641;28;20032;-42
2021/01/07 03:58:39;;;;;;;3.45;2.40;;;16.00;99.90;;;;;;5123766;27;20067;-43
2021/01/07 04:01:05;;;;;;;2.45;2.05;;;16.00;99.90;;;;;;5130565;27;20102;-43
2021/01/07 04:03:30;;;;;;;4.20;3.08;;;15.90;99.90;;;;;;5129036;27;20075;-42
2021/01/07 04:05:56;;;;;;;8.63;6.53;;;15.90;99.90;;;;;;5131427;27;20034;-42
2021/01/07 04:08:22;;;;;;;9.98;7.28;;;15.90;99.90;;;;;;5128180;27;20566;-42
2021/01/07 04:10:48;;;;;;;11.50;8.65;;;15.90;99.90;;;;;;5134905;27;20027;-42
2021/01/07 04:13:14;;;;;;;12.57;9.60;;;15.90;99.90;;;;;;5132265;27;20527;-42
2021/01/07 04:15:40;;;;;;;10.70;8.52;;;15.90;99.90;;;;;;5131002;27;20069;-42
2021/01/07 04:18:05;;;;;;;13.30;8.35;;;16.00;99.90;;;;;;5132341;27;20052;-42
2021/01/07 04:20:31;;;;;;;9.77;7.85;;;16.00;99.90;;;;;;5127712;27;20020;-43
2021/01/07 04:22:57;;;;;;;11.27;7.90;;;16.00;99.90;;;;;;5127888;27;20024;-43
2021/01/07 04:25:23;;;;;;;8.48;6.90;;;16.10;99.90;;;;;;5127044;27;20015;-43
2021/01/07 04:27:49;;;;;;;9.55;7.40;;;16.10;99.90;;;;;;5126773;27;20142;-43
2021/01/07 04:30:15;;;;;;;9.60;7.72;;;16.10;99.90;;;;;;5132099;27;20027;-43
2021/01/07 04:32:41;;;;;;;11.98;7.68;;;16.10;99.90;;;;;;5130755;27;20384;-43
2021/01/07 04:35:07;;;;;;;8.43;6.68;;;16.10;99.90;;;;;;5127297;27;20015;-43
2021/01/07 04:37:33;;;;;;;8.70;7.07;;;16.10;99.90;;;;;;5122905;27;20045;-43
2021/01/07 04:40:00;;;;;;;7.93;6.75;;;16.10;99.90;;;;;;5126119;27;20023;-43
2021/01/07 04:42:27;;;;;;;8.23;7.13;;;16.10;99.90;;;;;;5132308;27;20515;-42
2021/01/07 04:44:52;;;;;;;7.70;6.65;;;16.10;99.90;;;;;;5132457;27;20046;-43
2021/01/07 04:47:18;;;;;;;8.77;6.10;;;16.10;99.90;;;;;;5127518;27;20030;-42
2021/01/07 04:49:44;;;;;;;8.55;6.32;;;16.10;99.90;;;;;;5131159;27;20027;-43
2021/01/07 04:52:11;;;;;;;8.52;6.90;;;16.10;99.90;;;;;;5123444;27;20069;-44
2021/01/07 04:54:37;;;;;;;7.82;5.75;;;16.10;99.90;;;;;;5128244;27;20012;-44
2021/01/07 04:57:03;;;;;;;7.65;6.03;;;16.10;99.90;;;;;;5126883;27;20099;-44
2021/01/07 04:59:29;;;;;;;6.15;5.47;;;16.10;99.90;;;;;;5127714;27;20473;-44
2021/01/07 05:01:55;;;;;;;5.75;5.03;;;16.10;99.90;;;;;;5134737;27;20429;-42
2021/01/07 05:04:21;;;;;;;5.47;4.97;;;16.20;99.90;;;;;;5124783;27;20519;-43
2021/01/07 05:06:47;;;;;;;7.63;5.63;;;16.20;99.90;;;;;;5130559;27;20055;-44
2021/01/07 05:09:13;;;;;;;7.53;4.72;;;16.10;99.90;;;;;;5126295;27;20062;-43
2021/01/07 05:11:39;;;;;;;4.65;4.10;;;16.10;99.90;;;;;;5127450;27;20074;-43
2021/01/07 05:14:08;;;;;;;5.35;4.28;;;16.20;99.90;;;;;;5133195;27;20496;-43
2021/01/07 05:16:34;;;;;;;7.03;4.93;;;16.20;99.90;;;;;;5125316;27;20101;-43
2021/01/07 05:19:05;;;;;;;4.80;3.58;;;16.20;99.90;;;;;;5130240;27;20075;-43
2021/01/07 05:21:32;;;;;;;5.53;4.07;;;16.10;99.90;;;;;;5124368;27;20028;-43
2021/01/07 05:23:59;;;;;;;11.35;6.75;;;16.10;99.90;;;;;;5121439;27;20028;-43
2021/01/07 05:26:25;;;;;;;15.17;12.67;;;16.10;99.90;;;;;;5126499;27;20032;-43
2021/01/07 05:28:56;;;;;;;23.95;18.45;;;16.10;99.90;;;;;;5126238;27;20367;-43
2021/01/07 05:31:26;;;;;;;25.23;18.27;;;16.10;99.90;;;;;;5130150;27;20031;-43
2021/01/07 05:33:52;;;;;;;22.92;18.08;;;16.10;99.90;;;;;;5129052;27;20055;-43
2021/01/07 05:36:23;;;;;;;20.15;16.23;;;16.10;99.90;;;;;;5127721;27;20054;-43
2021/01/07 05:38:51;;;;;;;18.48;14.75;;;16.10;99.90;;;;;;5127099;27;20553;-43
2021/01/07 05:41:19;;;;;;;19.63;14.93;;;16.10;99.90;;;;;;5130685;27;20069;-43
2021/01/07 05:43:45;;;;;;;20.05;16.30;;;16.10;99.90;;;;;;5128336;27;20024;-43
2021/01/07 05:46:16;;;;;;;27.10;21.50;;;16.10;99.90;;;;;;5130832;27;20105;-43
2021/01/07 05:48:44;;;;;;;38.92;31.80;;;16.10;99.90;;;;;;5109761;27;20380;-43
2021/01/07 05:51:11;;;;;;;39.05;29.90;;;16.10;99.90;;;;;;5125934;27;20053;-43
2021/01/07 05:53:38;;;;;;;88.78;67.38;;;16.10;99.90;;;;;;5124011;27;20485;-43
2021/01/07 05:56:05;;;;;;;129.57;96.43;;;16.00;99.90;;;;;;5130430;27;20084;-43
2021/01/07 05:58:32;;;;;;;125.30;94.28;;;16.10;99.90;;;;;;5130354;27;20066;-43
2021/01/07 06:01:00;;;;;;;110.97;83.10;;;16.10;99.90;;;;;;5128751;27;20061;-43
2021/01/07 06:03:28;;;;;;;115.45;84.82;;;16.10;99.90;;;;;;5127240;27;20475;-43
2021/01/07 06:05:58;;;;;;;102.95;76.43;;;16.10;99.90;;;;;;5128338;27;20470;-43
2021/01/07 06:08:24;;;;;;;102.00;76.20;;;16.10;99.90;;;;;;5123435;27;20047;-43
2021/01/07 06:10:53;;;;;;;96.22;73.72;;;16.10;99.90;;;;;;5122618;27;20027;-44
2021/01/07 06:13:19;;;;;;;93.03;69.82;;;16.10;99.90;;;;;;5130121;27;20022;-44
2021/01/07 06:15:48;;;;;;;97.97;73.28;;;16.10;99.90;;;;;;5127024;27;20023;-43
2021/01/07 06:18:17;;;;;;;92.00;68.38;;;16.10;99.90;;;;;;5129090;27;20095;-44
2021/01/07 06:20:43;;;;;;;81.30;59.33;;;16.10;99.90;;;;;;5125159;27;20016;-43
2021/01/07 06:23:19;;;;;;;75.53;56.75;;;16.10;99.90;;;;;;5129277;27;20034;-44
2021/01/07 06:25:46;;;;;;;70.28;53.63;;;16.10;99.90;;;;;;5123054;27;20019;-44
2021/01/07 06:28:27;;;;;;;75.93;54.97;;;16.10;99.90;;;;;;5121597;27;20027;-44
2021/01/07 06:30:55;;;;;;;67.68;49.63;;;16.10;99.90;;;;;;5124886;27;20031;-43
2021/01/07 06:33:24;;;;;;;62.33;47.55;;;16.10;99.90;;;;;;5127886;27;20023;-42
2021/01/07 06:35:49;;;;;;;54.78;44.30;;;16.10;99.90;;;;;;5128950;27;20559;-44
2021/01/07 06:38:26;;;;;;;57.72;44.45;;;16.10;99.90;;;;;;5127447;27;20080;-43
2021/01/07 06:40:57;;;;;;;56.03;42.78;;;16.10;99.90;;;;;;5132350;27;20491;-42
2021/01/07 06:43:24;;;;;;;48.75;37.03;;;16.10;99.90;;;;;;5125016;27;20081;-43
2021/01/07 06:45:51;;;;;;;45.03;34.42;;;16.10;99.90;;;;;;5121422;27;20063;-44
2021/01/07 06:48:31;;;;;;;45.10;35.00;;;16.10;99.90;;;;;;5126463;27;20039;-44
2021/01/07 06:50:58;;;;;;;45.65;34.22;;;16.10;99.90;;;;;;5127925;27;20019;-44
2021/01/07 06:53:25;;;;;;;41.63;31.60;;;16.20;99.90;;;;;;5129587;27;20373;-42
2021/01/07 06:56:19;;;;;;;40.25;31.80;;;16.20;99.90;;;;;;5127758;27;20342;-42
2021/01/07 06:58:47;;;;;;;40.25;30.48;;;16.10;99.90;;;;;;5125419;27;20030;-42
2021/01/07 07:01:17;;;;;;;28.83;21.58;;;16.10;99.90;;;;;;5124214;27;20031;-42
2021/01/07 07:03:51;;;;;;;28.92;21.92;;;16.10;99.90;;;;;;5129666;27;20422;-43
2021/01/07 07:06:21;;;;;;;56.75;30.13;;;16.10;99.90;;;;;;5125469;27;20037;-43
2021/01/07 07:08:48;;;;;;;48.97;35.70;;;16.10;99.90;;;;;;5126822;27;20023;-43
2021/01/07 07:11:33;;;;;;;48.73;35.37;;;16.10;99.90;;;;;;5131098;27;20055;-44
2021/01/07 07:14:02;;;;;;;46.75;34.42;;;16.10;99.90;;;;;;5126394;27;20027;-43
2021/01/07 07:16:32;;;;;;;43.35;32.03;;;16.10;99.90;;;;;;5127056;27;20049;-43
2021/01/07 07:18:58;;;;;;;33.53;25.75;;;16.20;99.90;;;;;;5131337;27;20106;-43
2021/01/07 07:21:25;;;;;;;35.17;27.27;;;16.20;99.90;;;;;;5127662;27;20034;-43
2021/01/07 07:23:57;;;;;;;33.08;24.92;;;16.30;99.90;;;;;;5129308;27;20036;-43
2021/01/07 07:26:34;;;;;;;33.25;26.25;;;16.20;99.90;;;;;;5123559;27;20524;-43
2021/01/07 07:29:13;;;;;;;34.05;24.90;;;16.20;99.90;;;;;;5129894;27;20180;-43
2021/01/07 07:31:43;;;;;;;27.48;22.40;;;16.20;99.90;;;;;;5121955;28;20023;-44
2021/01/07 07:34:10;;;;;;;33.95;25.27;;;16.20;99.90;;;;;;5130334;28;20098;-43
2021/01/07 07:36:37;;;;;;;25.80;19.73;;;16.30;99.90;;;;;;5110744;28;20019;-43
2021/01/07 07:39:05;;;;;;;25.75;18.40;;;16.30;99.90;;;;;;5128692;28;20042;-43
2021/01/07 07:41:41;;;;;;;30.17;20.73;;;16.30;99.90;;;;;;5124397;28;20023;-43
2021/01/07 07:44:07;;;;;;;24.10;17.77;;;16.40;99.90;;;;;;5122694;28;20058;-44
2021/01/07 07:46:35;;;;;;;21.42;16.40;;;16.40;99.90;;;;;;5107520;28;20107;-44
2021/01/07 07:49:02;;;;;;;23.77;17.67;;;16.40;99.90;;;;;;5125786;28;20159;-43
2021/01/07 07:51:29;;;;;;;22.00;16.95;;;16.40;99.90;;;;;;5124789;28;20019;-43
2021/01/07 07:54:04;;;;;;;19.17;14.90;;;16.40;99.90;;;;;;5124728;28;20041;-43
2021/01/07 07:56:30;;;;;;;24.95;18.73;;;16.40;99.90;;;;;;5112972;28;20023;-43
2021/01/07 07:59:06;;;;;;;67.55;52.15;;;16.40;99.90;;;;;;5124633;28;20072;-43
2021/01/07 08:01:40;;;;;;;60.20;45.83;;;16.40;99.90;;;;;;5123442;28;20031;-43
2021/01/07 08:04:14;;;;;;;60.58;47.28;;;16.40;99.90;;;;;;5108950;28;20408;-43
2021/01/07 08:06:40;;;;;;;65.82;50.03;;;16.40;99.90;;;;;;5107725;28;20150;-43
2021/01/07 08:09:08;;;;;;;61.08;47.60;;;16.50;99.90;;;;;;5121196;28;20417;-42
2021/01/07 08:11:41;;;;;;;52.40;41.03;;;16.50;99.90;;;;;;5121878;28;20838;-43
2021/01/07 08:14:09;;;;;;;65.63;49.15;;;16.50;99.90;;;;;;5128548;28;20030;-43
2021/01/07 08:16:37;;;;;;;72.00;54.13;;;16.60;99.90;;;;;;5124761;28;20050;-43
2021/01/07 08:19:17;;;;;;;78.75;60.17;;;16.60;99.90;;;;;;5128338;28;20493;-43
2021/01/07 08:21:47;;;;;;;81.93;62.25;;;16.60;99.90;;;;;;5122428;28;20031;-43
2021/01/07 08:24:14;;;;;;;81.07;62.25;;;16.70;99.90;;;;;;5109811;28;20069;-43
2021/01/07 08:26:42;;;;;;;86.63;64.73;;;16.70;99.90;;;;;;5110741;28;20038;-43
2021/01/07 08:29:09;;;;;;;81.10;63.92;;;16.70;99.90;;;;;;5127243;28;20726;-43
2021/01/07 08:31:41;;;;;;;81.85;62.97;;;16.70;99.90;;;;;;5126674;28;20441;-43
2021/01/07 08:34:08;;;;;;;84.97;66.63;;;16.80;99.90;;;;;;5130951;28;20072;-43
2021/01/07 08:36:34;;;;;;;87.20;67.05;;;16.80;99.90;;;;;;5101198;28;20031;-32
2021/01/07 08:39:00;;;;;;;78.95;61.03;;;16.80;99.90;;;;;;5125975;28;20035;-32
2021/01/07 08:41:30;;;;;;;87.75;66.10;;;16.90;99.90;;;;;;5126354;28;20385;-32
2021/01/07 08:43:58;;;;;;;73.97;55.78;;;16.90;99.90;;;;;;5126668;27;20035;-32
2021/01/07 08:46:36;;;;;;;78.57;58.90;;;16.90;99.90;;;;;;5136088;27;20027;-32
2021/01/07 08:49:10;;;;;;;128.63;101.78;;;16.80;99.90;;;;;;5109952;27;20126;-31
2021/01/07 08:51:46;;;;;;;123.75;96.72;;;16.80;99.90;;;;;;5126927;27;20523;-31
2021/01/07 08:54:17;;;;;;;148.63;114.55;;;16.90;99.90;;;;;;5127028;27;20106;-31
2021/01/07 08:56:46;;;;;;;152.48;124.35;;;16.90;99.90;;;;;;5135355;27;20638;-31
2021/01/07 08:59:20;;;;;;;139.68;113.22;;;17.00;99.90;;;;;;5127613;27;20084;-30
2021/01/07 09:01:48;;;;;;;145.27;115.93;;;17.10;99.90;;;;;;5132124;27;20080;-31
2021/01/07 09:04:31;;;;;;;132.23;106.75;;;17.20;99.90;;;;;;5126210;27;20035;-33
2021/01/07 09:07:18;;;;;;;113.90;92.53;;;17.20;99.90;;;;;;5117908;27;20146;-32
2021/01/07 09:09:46;;;;;;;97.28;76.90;;;17.40;99.90;;;;;;5112686;27;20037;-37
2021/01/07 09:12:18;;;;;;;89.88;68.10;;;17.40;99.90;;;;;;5132634;27;20397;-35
2021/01/07 09:14:52;;;;;;;61.97;49.00;;;17.40;99.90;;;;;;5134066;27;20072;-36
2021/01/07 09:17:20;;;;;;;57.10;45.70;;;17.40;99.90;;;;;;5113744;27;20068;-37
2021/01/07 09:19:47;;;;;;;;;;;17.40;99.90;;;;;;5130085;27;20030;-37
2021/01/07 09:22:20;;;;;;;48.83;34.95;;;17.40;99.90;;;;;;5126083;27;20001;-34
2021/01/07 09:24:46;;;;;;;45.08;34.75;;;17.60;99.90;;;;;;5131025;27;20030;-34
2021/01/07 09:27:17;;;;;;;44.42;33.78;;;17.60;99.90;;;;;;5128379;27;20038;-34
2021/01/07 09:29:44;;;;;;;39.10;30.70;;;17.60;99.90;;;;;;5122224;27;20143;-34
2021/01/07 09:32:11;;;;;;;39.58;30.77;;;17.60;99.90;;;;;;5122296;27;20031;-34
2021/01/07 09:34:37;;;;;;;40.55;31.05;;;17.70;99.90;;;;;;5124606;27;20015;-34
2021/01/07 09:37:12;;;;;;;36.97;30.67;;;17.70;99.90;;;;;;5130368;27;20026;-34
2021/01/07 09:39:38;;;;;;;38.55;30.52;;;17.70;99.90;;;;;;5107915;27;20087;-34
2021/01/07 09:42:05;;;;;;;36.70;29.70;;;17.70;99.90;;;;;;5123475;27;20023;-42
2021/01/07 09:44:32;;;;;;;35.67;28.93;;;17.80;99.90;;;;;;5110575;27;20027;-43
2021/01/07 09:46:58;;;;;;;37.28;29.35;;;17.80;99.90;;;;;;5133094;27;20078;-42
2021/01/07 09:49:25;;;;;;;28.42;21.52;;;17.90;99.90;;;;;;5126681;27;20027;-42
2021/01/07 09:51:51;;;;;;;28.90;21.13;;;17.80;99.90;;;;;;5114713;27;20019;-42
2021/01/07 09:54:18;;;;;;;41.22;31.95;;;17.70;99.90;;;;;;5130013;27;20075;-42
2021/01/07 09:56:44;;;;;;;38.95;31.00;;;17.50;99.90;;;;;;5120861;27;20026;-42
2021/01/07 09:59:11;;;;;;;30.92;25.48;;;17.40;99.90;;;;;;5119837;27;20023;-42
2021/01/07 10:01:37;;;;;;;30.40;22.70;;;17.40;99.90;;;;;;5126532;27;20023;-41
2021/01/07 10:04:03;;;;;;;27.73;21.42;;;17.30;99.90;;;;;;5133638;27;20027;-42
2021/01/07 10:06:29;;;;;;;38.05;29.80;;;17.30;99.90;;;;;;5122916;27;20034;-42
2021/01/07 10:08:55;;;;;;;92.40;70.63;;;17.30;99.90;;;;;;5107081;27;20031;-42
2021/01/07 10:11:21;;;;;;;65.97;51.17;;;17.30;99.90;;;;;;5132525;27;20023;-42
2021/01/07 10:13:47;;;;;;;68.68;52.28;;;17.30;99.90;;;;;;5127818;27;20059;-42
2021/01/07 10:16:14;;;;;;;55.65;43.83;;;17.30;99.90;;;;;;5123707;27;20034;-42
2021/01/07 10:18:41;;;;;;;47.70;37.10;;;17.30;99.90;;;;;;5105440;27;20089;-43
2021/01/07 10:21:10;;;;;;;39.50;30.40;;;17.30;99.90;;;;;;5122547;27;20276;-42
2021/01/07 10:23:43;;;;;;;28.60;23.35;;;17.20;99.90;;;;;;5126545;27;20034;-42
2021/01/07 10:26:10;;;;;;;29.02;21.88;;;17.20;99.90;;;;;;5128537;27;20023;-41
2021/01/07 10:28:37;;;;;;;21.17;18.10;;;17.20;99.90;;;;;;5121776;27;20119;-42
2021/01/07 10:31:03;;;;;;;22.25;16.80;;;17.20;99.90;;;;;;5125166;27;20019;-34
2021/01/07 10:33:32;;;;;;;15.65;13.10;;;17.30;99.90;;;;;;5129995;27;20110;-34
2021/01/07 10:35:58;;;;;;;15.25;11.50;;;17.20;99.90;;;;;;5130123;27;20023;-34
2021/01/07 10:38:25;;;;;;;15.13;11.00;;;17.30;99.90;;;;;;5132348;27;20027;-34
2021/01/07 10:40:52;;;;;;;19.85;15.35;;;17.30;99.90;;;;;;5132188;27;20019;-34
2021/01/07 10:43:22;;;;;;;27.73;22.45;;;17.20;99.90;;;;;;5126111;27;20102;-34
2021/01/07 10:45:53;;;;;;;19.90;15.68;;;17.20;99.90;;;;;;5130102;27;20055;-34
2021/01/07 10:48:23;;;;;;;23.48;17.88;;;17.20;99.90;;;;;;5127740;27;20034;-34
2021/01/07 10:50:53;;;;;;;17.23;14.23;;;17.20;99.90;;;;;;5126156;27;20081;-34
2021/01/07 10:53:46;;;;;;;18.05;12.98;;;17.30;99.90;;;;;;5127237;27;20042;-34
2021/01/07 10:56:25;;;;;;;12.60;9.70;;;17.20;99.90;;;;;;5130029;27;20031;-34
2021/01/07 10:59:13;;;;;;;54.80;43.67;;;17.20;99.90;;;;;;5125519;27;20019;-34
2021/01/07 11:02:03;;;;;;;26.58;20.00;;;17.40;99.90;;;;;;5125176;27;20534;-34
2021/01/07 11:04:35;;;;;;;23.80;17.70;;;17.40;99.90;;;;;;5113986;27;20471;-34
2021/01/07 11:07:28;;;;;;;32.33;14.52;;;17.40;99.90;;;;;;5127155;27;20030;-34
2021/01/07 11:10:01;;;;;;;12.55;9.85;;;17.30;99.90;;;;;;5127162;27;20020;-34
2021/01/07 11:12:33;;;;;;;18.60;12.45;;;17.20;99.90;;;;;;5130024;27;20020;-34
2021/01/07 11:15:11;;;;;;;36.67;23.80;;;17.30;99.90;;;;;;5124048;27;20031;-34
2021/01/07 11:17:41;;;;;;;72.30;54.90;;;17.30;99.90;;;;;;5124014;27;20031;-34
2021/01/07 11:20:08;;;;;;;86.65;66.78;;;17.20;99.90;;;;;;5129258;27;20058;-34
2021/01/07 11:22:38;;;;;;;76.72;61.35;;;17.20;99.90;;;;;;5130342;27;20072;-34
2021/01/07 11:25:06;;;;;;;70.13;52.67;;;17.30;99.90;;;;;;5126539;27;20388;-34
2021/01/07 11:27:36;;;;;;;58.42;45.63;;;17.40;99.90;;;;;;5131159;27;20023;-34
2021/01/07 11:30:04;;;;;;;40.00;30.98;;;17.30;99.90;;;;;;5124126;27;20076;-34
2021/01/07 11:32:31;;;;;;;37.47;29.17;;;17.30;99.90;;;;;;5119775;28;20024;-34
2021/01/07 11:34:59;;;;;;;33.05;26.67;;;17.30;99.90;;;;;;5121511;28;20050;-34
2021/01/07 11:37:52;;;;;;;29.63;22.20;;;17.50;99.90;;;;;;5129072;28;20023;-34
2021/01/07 11:40:50;;;;;;;21.55;16.85;;;17.50;99.90;;;;;;5115524;28;20031;-34
2021/01/07 11:43:40;;;;;;;11.90;10.65;;;17.40;99.90;;;;;;5100027;28;20040;-34
2021/01/07 11:46:12;;;;;;;14.90;12.50;;;17.40;99.90;;;;;;5120769;28;20030;-34
2021/01/07 11:48:41;;;;;;;13.88;9.10;;;17.30;99.90;;;;;;5131549;28;20019;-34
2021/01/07 11:51:09;;;;;;;8.38;5.07;;;17.30;99.90;;;;;;5129206;28;20049;-34
2021/01/07 11:53:36;;;;;;;12.82;5.85;;;17.10;99.90;;;;;;5130962;28;20030;-34
2021/01/07 11:56:03;;;;;;;10.35;5.20;;;17.10;99.90;;;;;;5129149;28;20118;-34
2021/01/07 11:58:30;;;;;;;6.60;4.40;;;17.10;99.90;;;;;;5124485;28;20047;-34
2021/01/07 12:00:59;;;;;;;10.60;4.33;;;17.10;99.90;;;;;;5129634;28;20019;-34
2021/01/07 12:03:35;;;;;;;13.80;4.30;;;17.20;99.90;;;;;;5130818;28;20302;-34
2021/01/07 12:06:02;;;;;;;8.57;4.40;;;17.20;99.90;;;;;;5129382;28;20350;-34
2021/01/07 12:09:01;;;;;;;7.43;4.50;;;17.30;99.90;;;;;;5104563;28;20023;-34
2021/01/07 12:11:37;;;;;;;11.35;3.78;;;17.30;99.90;;;;;;5127772;28;20019;-34
2021/01/07 12:14:24;;;;;;;8.65;3.72;;;17.30;99.90;;;;;;5126697;28;20020;-34
2021/01/07 12:16:53;;;;;;;7.43;3.45;;;17.30;99.90;;;;;;5127961;28;20068;-34
2021/01/07 12:19:22;;;;;;;10.00;3.50;;;17.40;99.90;;;;;;5133022;27;20088;-34
2021/01/07 12:21:49;;;;;;;8.20;3.60;;;17.40;99.90;;;;;;5131688;27;20476;-34
2021/01/07 12:24:17;;;;;;;8.98;3.08;;;17.40;99.90;;;;;;5133025;27;20038;-34
2021/01/07 12:26:47;;;;;;;12.65;3.25;;;17.40;99.90;;;;;;5130820;27;20027;-34
2021/01/07 12:29:19;;;;;;;11.05;3.45;;;17.40;99.90;;;;;;5125539;27;20103;-33
2021/01/07 12:31:52;;;;;;;12.55;3.70;;;17.40;99.90;;;;;;5136807;27;20031;-33
2021/01/07 12:34:58;;;;;;;14.73;4.72;;;17.50;99.90;;;;;;5116201;27;20027;-34
2021/01/07 12:37:27;;;;;;;12.27;3.37;;;17.40;99.90;;;;;;5114984;27;20472;-34
2021/01/07 12:40:07;;;;;;;9.30;3.20;;;17.60;99.90;;;;;;5129371;27;20278;-34
2021/01/07 12:42:43;;;;;;;14.07;3.65;;;17.70;99.90;;;;;;5133295;27;20029;-34